Time;durP1;ratioP1;P1;durP2;ratioP2;P2;SDS_P1;SDS_P2;PMS_P1;PMS_P2;Temp;Humidity;BMP_temperature;BMP_pressure;BME280_temperature;BME280_humidity;BME280_pressure;Samples;Min_cycle;Max_cycle;Signal;HPM_P1;HPM_P2
2022/11/04 00:01:15;;;;;;;230.73;115.87;;;;;;;;;;4991095;28;20241;-54
2022/11/04 00:03:41;;;;;;;231.90;116.90;;;;;;;;;;4991318;28;20178;-54
2022/11/04 00:06:07;;;;;;;234.37;117.43;;;;;;;;;;4992044;28;20511;-54
2022/11/04 00:08:33;;;;;;;232.70;117.87;;;;;;;;;;4994612;28;20645;-53
2022/11/04 00:13:45;;;;;;;227.37;114.13;;;;;;;;;;4996716;28;20220;-54
2022/11/04 00:18:56;;;;;;;230.53;118.53;;;;;;;;;;4986896;28;20251;-54
2022/11/04 00:29:39;;;;;;;161.77;94.83;;;;;;;;;;4990281;28;20216;-54
2022/11/04 00:34:50;;;;;;;163.10;96.33;;;;;;;;;;4991777;28;20217;-54
2022/11/04 00:37:16;;;;;;;160.33;97.20;;;;;;;;;;4992222;28;20229;-54
2022/11/04 00:39:41;;;;;;;173.47;104.07;;;;;;;;;;4991597;28;20270;-54
2022/11/04 00:42:07;;;;;;;164.33;99.80;;;;;;;;;;4989718;28;20178;-54
2022/11/04 00:44:33;;;;;;;181.57;108.00;;;;;;;;;;4985251;28;20717;-54
2022/11/04 00:46:59;;;;;;;151.40;92.93;;;;;;;;;;4991908;28;20225;-54
2022/11/04 00:49:25;;;;;;;169.93;103.57;;;;;;;;;;4990994;28;20223;-54
2022/11/04 00:51:51;;;;;;;147.43;93.03;;;;;;;;;;4997281;28;20217;-54
2022/11/04 00:54:17;;;;;;;155.40;95.23;;;;;;;;;;4990434;28;20301;-53
2022/11/04 00:56:43;;;;;;;154.20;95.70;;;;;;;;;;4988729;28;20312;-54
2022/11/04 00:59:09;;;;;;;173.70;104.73;;;;;;;;;;4990978;28;20941;-54
2022/11/04 01:01:35;;;;;;;141.00;88.77;;;;;;;;;;4988008;28;20642;-54
2022/11/04 01:04:01;;;;;;;155.43;97.17;;;;;;;;;;4991411;28;20249;-54
2022/11/04 01:06:27;;;;;;;170.63;104.27;;;;;;;;;;4991760;28;20205;-54
2022/11/04 01:09:01;;;;;;;173.30;103.27;;;;;;;;;;4990772;28;20749;-54
2022/11/04 01:11:30;;;;;;;159.57;96.60;;;;;;;;;;4989444;28;20213;-54
2022/11/04 01:13:56;;;;;;;171.90;104.03;;;;;;;;;;4987995;28;20982;-54
2022/11/04 01:16:23;;;;;;;160.90;96.83;;;;;;;;;;4988982;28;20229;-54
2022/11/04 01:18:49;;;;;;;166.53;98.83;;;;;;;;;;4986301;28;20226;-54
2022/11/04 01:21:15;;;;;;;178.97;103.63;;;;;;;;;;4989468;28;20185;-54
2022/11/04 01:23:42;;;;;;;161.27;96.67;;;;;;;;;;4990948;28;20666;-54
2022/11/04 01:26:18;;;;;;;180.77;105.20;;;;;;;;;;4989062;28;20229;-54
2022/11/04 01:28:44;;;;;;;188.37;106.77;;;;;;;;;;4990756;28;20271;-54
2022/11/04 01:31:15;;;;;;;182.07;102.50;;;;;;;;;;4999059;28;20597;-54
2022/11/04 01:33:41;;;;;;;180.33;100.77;;;;;;;;;;4999919;28;20213;-54
2022/11/04 01:36:07;;;;;;;192.03;107.90;;;;;;;;;;5016846;28;20200;-54
2022/11/04 01:38:34;;;;;;;191.30;105.60;;;;;;;;;;5013982;28;20215;-54
2022/11/04 01:41:00;;;;;;;203.00;110.47;;;;;;;;;;5010443;28;20658;-53
2022/11/04 01:43:45;;;;;;;205.63;111.73;;;;;;;;;;5012590;28;20243;-54
2022/11/04 01:46:15;;;;;;;208.43;111.67;;;;;;;;;;5012431;28;20808;-54
2022/11/04 01:48:41;;;;;;;216.40;115.43;;;;;;;;;;5011434;28;20185;-54
2022/11/04 01:51:07;;;;;;;206.53;109.07;;;;;;;;;;5011399;28;20268;-53
2022/11/04 01:53:34;;;;;;;201.53;107.60;;;;;;;;;;5014171;28;20224;-54
2022/11/04 01:56:03;;;;;;;214.63;111.83;;;;;;;;;;5009363;28;20237;-54
2022/11/04 01:58:30;;;;;;;215.83;113.73;;;;;;;;;;5007777;28;20223;-54
2022/11/04 02:00:56;;;;;;;202.57;107.70;;;;;;;;;;5015829;28;20584;-54
2022/11/04 02:03:33;;;;;;;220.83;114.40;;;;;;;;;;5014611;28;20216;-54
2022/11/04 02:05:59;;;;;;;183.63;99.17;;;;;;;;;;5011177;28;20216;-54
2022/11/04 02:08:25;;;;;;;200.47;108.00;;;;;;;;;;5012199;28;20228;-54
2022/11/04 02:10:54;;;;;;;193.67;107.13;;;;;;;;;;5014830;28;20286;-54
2022/11/04 02:13:20;;;;;;;204.40;110.70;;;;;;;;;;5012994;28;20247;-54
2022/11/04 02:15:52;;;;;;;204.10;111.70;;;;;;;;;;5014158;28;20221;-54
2022/11/04 02:18:23;;;;;;;229.37;126.50;;;;;;;;;;5007622;28;20181;-54
2022/11/04 02:20:52;;;;;;;190.23;106.10;;;;;;;;;;5012152;28;20681;-54
2022/11/04 02:23:30;;;;;;;208.00;114.33;;;;;;;;;;4995167;28;20228;-54
2022/11/04 02:26:15;;;;;;;198.47;108.60;;;;;;;;;;5012049;28;20225;-54
2022/11/04 02:28:50;;;;;;;211.37;116.77;;;;;;;;;;5012480;28;20321;-54
2022/11/04 02:31:34;;;;;;;207.03;113.30;;;;;;;;;;5013566;28;20275;-54
2022/11/04 02:34:09;;;;;;;177.40;100.33;;;;;;;;;;5012569;28;20243;-54
2022/11/04 02:36:42;;;;;;;208.93;114.73;;;;;;;;;;5012366;28;20216;-54
2022/11/04 02:39:19;;;;;;;181.57;101.40;;;;;;;;;;5015004;28;20201;-53
2022/11/04 02:41:51;;;;;;;191.73;106.97;;;;;;;;;;5018755;28;20216;-54
2022/11/04 02:44:19;;;;;;;186.90;104.50;;;;;;;;;;5009150;28;20271;-54
2022/11/04 02:46:48;;;;;;;229.27;125.80;;;;;;;;;;5016491;28;20224;-54
2022/11/04 02:49:32;;;;;;;203.17;113.03;;;;;;;;;;5009348;28;20290;-54
2022/11/04 02:52:01;;;;;;;206.30;117.50;;;;;;;;;;5006965;28;20229;-54
2022/11/04 02:54:48;;;;;;;203.83;115.43;;;;;;;;;;5010077;28;20201;-54
2022/11/04 02:57:16;;;;;;;172.53;100.97;;;;;;;;;;5012857;28;20225;-54
2022/11/04 02:59:49;;;;;;;170.90;100.97;;;;;;;;;;5014525;28;20216;-54
2022/11/04 03:02:22;;;;;;;178.23;104.70;;;;;;;;;;5012339;28;20271;-54
2022/11/04 03:04:50;;;;;;;172.40;102.03;;;;;;;;;;5010094;28;20225;-54
2022/11/04 03:07:17;;;;;;;165.07;100.00;;;;;;;;;;4993540;28;20267;-54
2022/11/04 03:09:47;;;;;;;193.57;114.50;;;;;;;;;;5013625;28;20193;-54
2022/11/04 03:12:15;;;;;;;169.40;105.23;;;;;;;;;;5010215;28;20181;-54
2022/11/04 03:14:42;;;;;;;163.20;101.77;;;;;;;;;;4996105;28;20251;-53
2022/11/04 03:17:13;;;;;;;166.37;103.40;;;;;;;;;;5014182;28;20224;-54
2022/11/04 03:19:58;;;;;;;170.47;106.40;;;;;;;;;;5010379;28;20270;-54
2022/11/04 03:22:26;;;;;;;171.43;106.27;;;;;;;;;;5008415;28;20217;-54
2022/11/04 03:24:52;;;;;;;168.23;103.13;;;;;;;;;;5014655;28;20213;-54
2022/11/04 03:27:24;;;;;;;149.60;97.00;;;;;;;;;;5012222;28;20316;-54
2022/11/04 03:29:50;;;;;;;162.57;103.40;;;;;;;;;;5010182;28;20220;-54
2022/11/04 03:32:32;;;;;;;144.33;94.90;;;;;;;;;;5017856;28;20229;-54
2022/11/04 03:34:58;;;;;;;154.40;100.30;;;;;;;;;;5011782;28;20758;-53
2022/11/04 03:37:24;;;;;;;144.03;94.30;;;;;;;;;;5006569;28;20218;-54
2022/11/04 03:39:50;;;;;;;165.37;103.37;;;;;;;;;;5008245;28;20224;-54
2022/11/04 03:42:20;;;;;;;159.57;103.63;;;;;;;;;;5009372;28;20181;-54
2022/11/04 03:44:48;;;;;;;134.37;93.07;;;;;;;;;;5006642;28;20225;-54
2022/11/04 03:47:14;;;;;;;146.43;99.00;;;;;;;;;;5008583;28;20220;-54
2022/11/04 03:49:40;;;;;;;150.50;100.30;;;;;;;;;;5005769;28;20220;-53
2022/11/04 03:52:06;;;;;;;143.83;97.27;;;;;;;;;;5012190;28;20224;-54
2022/11/04 03:54:34;;;;;;;148.30;99.10;;;;;;;;;;5007597;28;20212;-54
2022/11/04 03:57:19;;;;;;;133.33;93.03;;;;;;;;;;5009045;28;20255;-54
2022/11/04 03:59:51;;;;;;;139.23;93.00;;;;;;;;;;4989321;28;20570;-54
2022/11/04 04:02:19;;;;;;;134.70;91.77;;;;;;;;;;5010344;28;20227;-54
2022/11/04 04:04:56;;;;;;;133.67;92.17;;;;;;;;;;4991002;28;20699;-53
2022/11/04 04:07:44;;;;;;;133.33;88.60;;;;;;;;;;5090219;27;20584;-52
2022/11/04 04:10:37;;;;;;;168.80;99.30;;;;;;;;;;5052898;28;20208;-52
2022/11/04 04:12:58;;;;;;;155.70;94.07;;;;;;;;;;5055360;28;20203;-52
2022/11/04 04:15:27;;;;;;;157.37;94.43;;;;;;;;;;5052730;28;20187;-52
2022/11/04 04:17:58;;;;;;;168.37;100.50;;;;;;;;;;5070356;28;20223;-51
2022/11/04 04:20:26;;;;;;;192.47;108.07;;;;;;;;;;5065619;28;20672;-52
2022/11/04 04:22:53;;;;;;;165.10;97.33;;;;;;;;;;5074018;28;20878;-52
2022/11/04 04:28:07;;;;;;;164.03;97.83;;;;;;;;;;5066576;28;20225;-52
2022/11/04 04:30:34;;;;;;;156.53;93.90;;;;;;;;;;5069479;28;20274;-52
2022/11/04 04:33:06;;;;;;;151.10;92.37;;;;;;;;;;5069069;28;20642;-51
2022/11/04 04:35:41;;;;;;;141.13;90.40;;;;;;;;;;5074671;28;20230;-52
2022/11/04 04:46:28;;;;;;;142.80;90.57;;;;;;;;;;5065729;28;20221;-52
2022/11/04 04:48:54;;;;;;;152.47;93.63;;;;;;;;;;5074272;28;20693;-52
2022/11/04 04:51:20;;;;;;;153.83;95.70;;;;;;;;;;5067558;28;20187;-52
2022/11/04 04:53:46;;;;;;;191.97;106.57;;;;;;;;;;5063360;28;20305;-52
2022/11/04 04:56:12;;;;;;;170.97;101.40;;;;;;;;;;5065941;28;20261;-52
2022/11/04 04:58:38;;;;;;;170.93;101.50;;;;;;;;;;5063209;28;20211;-51
2022/11/04 05:01:04;;;;;;;185.43;106.23;;;;;;;;;;5067275;28;20223;-54
2022/11/04 05:03:30;;;;;;;168.87;98.73;;;;;;;;;;5066275;28;20594;-51
2022/11/04 05:05:58;;;;;;;207.50;112.60;;;;;;;;;;5066078;28;20227;-51
2022/11/04 05:08:24;;;;;;;167.20;98.77;;;;;;;;;;5073514;28;20287;-52
2022/11/04 05:10:50;;;;;;;182.43;99.03;;;;;;;;;;5069512;28;20282;-52
2022/11/04 05:13:25;;;;;;;190.03;103.50;;;;;;;;;;5067824;28;20226;-54
2022/11/04 05:15:52;;;;;;;123.10;82.30;;;;;;;;;;5067217;28;20241;-52
2022/11/04 05:18:19;;;;;;;197.73;105.97;;;;;;;;;;5058234;28;20266;-51
2022/11/04 05:20:44;;;;;;;133.67;84.37;;;;;;;;;;5060051;28;20770;-51
2022/11/04 05:23:12;;;;;;;182.57;100.70;;;;;;;;;;5056888;28;20251;-51
2022/11/04 05:25:38;;;;;;;165.27;94.67;;;;;;;;;;5049982;28;20214;-54
2022/11/04 05:28:05;;;;;;;191.93;102.17;;;;;;;;;;5047689;28;20273;-51
2022/11/04 05:30:31;;;;;;;156.73;92.13;;;;;;;;;;5057044;28;20184;-52
2022/11/04 05:32:57;;;;;;;146.87;90.13;;;;;;;;;;5060294;28;20197;-52
2022/11/04 05:35:23;;;;;;;149.33;90.23;;;;;;;;;;5058035;28;20223;-52
2022/11/04 05:37:49;;;;;;;149.33;89.60;;;;;;;;;;5066380;28;20226;-51
2022/11/04 05:40:15;;;;;;;187.13;104.27;;;;;;;;;;5053991;28;20211;-52
2022/11/04 05:42:41;;;;;;;173.80;98.90;;;;;;;;;;5056904;28;20195;-51
2022/11/04 05:45:07;;;;;;;169.90;95.73;;;;;;;;;;5055479;28;20214;-54
2022/11/04 05:47:33;;;;;;;146.43;88.10;;;;;;;;;;5065062;28;20289;-52
2022/11/04 05:49:59;;;;;;;161.97;93.90;;;;;;;;;;5056239;28;20719;-51
2022/11/04 05:52:25;;;;;;;124.07;81.97;;;;;;;;;;5059773;28;20219;-52
2022/11/04 05:54:51;;;;;;;194.63;104.03;;;;;;;;;;5050600;28;20215;-52
2022/11/04 05:57:17;;;;;;;195.63;106.80;;;;;;;;;;5049867;28;20211;-51
2022/11/04 05:59:43;;;;;;;195.77;105.37;;;;;;;;;;5051258;28;20208;-51
2022/11/04 06:02:09;;;;;;;146.93;88.33;;;;;;;;;;5055653;28;20207;-52
2022/11/04 06:04:35;;;;;;;135.87;84.47;;;;;;;;;;5049209;28;20261;-53
2022/11/04 06:07:00;;;;;;;135.70;85.33;;;;;;;;;;5051341;28;20231;-53
2022/11/04 06:09:39;;;;;;;142.07;87.00;;;;;;;;;;5050469;28;20215;-53
2022/11/04 06:12:09;;;;;;;135.03;84.77;;;;;;;;;;5051582;28;20206;-53
2022/11/04 06:14:35;;;;;;;127.70;81.23;;;;;;;;;;5058245;28;20734;-53
2022/11/04 06:17:01;;;;;;;156.43;92.53;;;;;;;;;;5058857;28;20636;-53
2022/11/04 06:19:27;;;;;;;140.60;87.20;;;;;;;;;;5062642;28;20241;-53
2022/11/04 06:21:53;;;;;;;144.70;88.10;;;;;;;;;;5062975;28;20565;-53
2022/11/04 06:24:19;;;;;;;153.57;94.40;;;;;;;;;;5055967;28;20168;-53
2022/11/04 06:26:45;;;;;;;191.43;104.80;;;;;;;;;;5050636;28;20314;-53
2022/11/04 06:29:11;;;;;;;131.43;83.70;;;;;;;;;;5054056;28;20703;-52
2022/11/04 06:31:37;;;;;;;132.00;83.87;;;;;;;;;;5055930;28;20392;-52
2022/11/04 06:34:03;;;;;;;143.03;87.87;;;;;;;;;;5052651;28;20211;-52
2022/11/04 06:36:29;;;;;;;129.17;83.37;;;;;;;;;;5050331;28;20208;-52
2022/11/04 06:38:55;;;;;;;147.90;89.77;;;;;;;;;;5049401;28;20178;-52
2022/11/04 06:41:21;;;;;;;143.83;89.10;;;;;;;;;;5050106;28;20223;-51
2022/11/04 06:43:47;;;;;;;135.57;86.73;;;;;;;;;;5050643;28;20215;-52
2022/11/04 06:46:23;;;;;;;166.57;95.70;;;;;;;;;;5049596;28;20215;-52
2022/11/04 06:48:49;;;;;;;160.73;94.20;;;;;;;;;;5049604;28;20211;-55
2022/11/04 06:51:16;;;;;;;136.70;84.80;;;;;;;;;;5048110;28;20206;-52
2022/11/04 06:53:42;;;;;;;143.10;87.07;;;;;;;;;;5049442;28;20675;-52
2022/11/04 06:56:09;;;;;;;119.07;84.33;;;;;;;;;;5049574;28;20314;-52
2022/11/04 06:58:35;;;;;;;159.53;96.37;;;;;;;;;;5049604;28;20699;-52
2022/11/04 07:01:01;;;;;;;131.50;83.90;;;;;;;;;;5049898;28;20294;-52
2022/11/04 07:03:27;;;;;;;132.03;84.97;;;;;;;;;;5049720;28;20198;-52
2022/11/04 07:05:53;;;;;;;146.63;89.90;;;;;;;;;;5050079;28;20211;-53
2022/11/04 07:08:19;;;;;;;158.90;92.13;;;;;;;;;;5048876;28;20219;-53
2022/11/04 07:10:45;;;;;;;157.27;92.67;;;;;;;;;;5046907;28;20226;-53
2022/11/04 07:13:11;;;;;;;145.93;89.00;;;;;;;;;;5049345;28;20257;-53
2022/11/04 07:15:38;;;;;;;144.40;88.83;;;;;;;;;;5048953;28;20622;-53
2022/11/04 07:18:05;;;;;;;155.17;92.33;;;;;;;;;;5049163;28;20658;-53
2022/11/04 07:20:32;;;;;;;138.70;86.10;;;;;;;;;;5049282;28;20695;-53
2022/11/04 07:22:58;;;;;;;138.40;86.33;;;;;;;;;;5049308;28;20221;-53
2022/11/04 07:25:24;;;;;;;156.50;93.57;;;;;;;;;;5048685;28;20707;-52
2022/11/04 07:27:50;;;;;;;302.13;138.27;;;;;;;;;;5025444;28;20226;-51
2022/11/04 07:30:19;;;;;;;276.73;131.17;;;;;;;;;;5018912;28;20184;-51
2022/11/04 07:32:45;;;;;;;222.67;113.77;;;;;;;;;;5018520;28;20531;-52
2022/11/04 07:35:11;;;;;;;138.13;88.50;;;;;;;;;;5037199;28;20315;-53
2022/11/04 07:37:37;;;;;;;144.50;89.17;;;;;;;;;;5048709;28;20227;-52
2022/11/04 07:40:04;;;;;;;166.90;101.20;;;;;;;;;;5048597;28;20211;-54
2022/11/04 07:42:30;;;;;;;167.27;100.87;;;;;;;;;;5050064;28;20176;-52
2022/11/04 07:44:56;;;;;;;160.57;96.20;;;;;;;;;;5050864;28;20192;-52
2022/11/04 07:47:22;;;;;;;166.47;95.90;;;;;;;;;;5051692;28;20219;-52
2022/11/04 07:49:48;;;;;;;164.77;95.50;;;;;;;;;;5054745;28;20242;-52
2022/11/04 07:52:14;;;;;;;172.03;97.50;;;;;;;;;;5054619;28;20261;-52
2022/11/04 07:54:40;;;;;;;190.33;104.10;;;;;;;;;;5054079;28;20565;-52
2022/11/04 07:57:07;;;;;;;181.43;100.30;;;;;;;;;;5057033;28;20222;-52
2022/11/04 07:59:33;;;;;;;223.97;112.23;;;;;;;;;;5061009;28;20356;-52
2022/11/04 08:01:59;;;;;;;230.50;113.20;;;;;;;;;;5071901;28;20241;-52
2022/11/04 08:04:25;;;;;;;236.73;117.30;;;;;;;;;;5070093;28;20235;-52
2022/11/04 08:06:51;;;;;;;239.80;118.27;;;;;;;;;;5069826;28;20226;-52
2022/11/04 08:09:17;;;;;;;245.50;124.00;;;;;;;;;;5059897;28;20278;-52
2022/11/04 08:11:43;;;;;;;246.87;124.30;;;;;;;;;;5053673;28;20618;-52
2022/11/04 08:14:09;;;;;;;255.40;127.17;;;;;;;;;;5054631;28;20219;-52
2022/11/04 08:16:35;;;;;;;250.77;123.80;;;;;;;;;;5062621;28;20227;-52
2022/11/04 08:19:01;;;;;;;264.07;127.73;;;;;;;;;;5068166;28;20215;-52
2022/11/04 08:21:28;;;;;;;240.77;117.40;;;;;;;;;;5059070;28;20199;-52
2022/11/04 08:23:55;;;;;;;285.37;137.00;;;;;;;;;;5071616;28;20292;-54
2022/11/04 08:26:22;;;;;;;265.57;127.93;;;;;;;;;;5054667;28;20263;-52
2022/11/04 08:28:48;;;;;;;302.80;139.93;;;;;;;;;;5060359;28;20211;-52
2022/11/04 08:31:16;;;;;;;313.53;139.63;;;;;;;;;;5072059;28;20552;-52
2022/11/04 08:33:42;;;;;;;330.43;143.60;;;;;;;;;;5053906;28;20172;-52
2022/11/04 08:36:19;;;;;;;330.37;145.07;;;;;;;;;;5053839;28;20227;-52
2022/11/04 08:38:45;;;;;;;331.47;144.70;;;;;;;;;;5053796;28;20301;-52
2022/11/04 08:41:12;;;;;;;330.07;142.83;;;;;;;;;;5061287;28;20211;-52
2022/11/04 08:43:38;;;;;;;326.97;141.60;;;;;;;;;;5074154;28;20206;-52
2022/11/04 08:46:05;;;;;;;341.97;148.57;;;;;;;;;;5062904;28;20625;-52
2022/11/04 08:48:31;;;;;;;316.67;145.90;;;;;;;;;;5070268;28;20179;-52
2022/11/04 08:50:58;;;;;;;239.30;122.77;;;;;;;;;;5055535;28;20207;-52
2022/11/04 08:53:24;;;;;;;228.07;116.43;;;;;;;;;;5069586;28;20214;-52
2022/11/04 08:55:50;;;;;;;223.47;119.00;;;;;;;;;;5063620;28;20219;-52
2022/11/04 08:58:17;;;;;;;216.97;117.60;;;;;;;;;;5058033;28;20211;-52
2022/11/04 09:00:43;;;;;;;235.63;122.53;;;;;;;;;;5058610;28;20740;-52
2022/11/04 09:03:09;;;;;;;220.23;118.93;;;;;;;;;;5066292;28;20210;-52
2022/11/04 09:05:47;;;;;;;217.87;118.50;;;;;;;;;;5064640;28;20231;-52
2022/11/04 09:08:15;;;;;;;214.57;116.33;;;;;;;;;;5054948;28;20237;-52
2022/11/04 09:10:42;;;;;;;214.20;116.60;;;;;;;;;;5057654;28;20297;-52
2022/11/04 09:13:10;;;;;;;210.50;112.73;;;;;;;;;;5056887;28;20217;-52
2022/11/04 09:15:36;;;;;;;212.60;119.37;;;;;;;;;;5056565;28;20206;-52
2022/11/04 09:18:02;;;;;;;207.73;111.53;;;;;;;;;;5055879;28;20218;-52
2022/11/04 09:20:28;;;;;;;213.43;117.80;;;;;;;;;;5056231;28;20211;-52
2022/11/04 09:22:55;;;;;;;218.93;115.30;;;;;;;;;;5056080;28;20234;-52
2022/11/04 09:25:21;;;;;;;203.13;112.40;;;;;;;;;;5053393;28;20319;-52
2022/11/04 09:27:47;;;;;;;189.87;111.40;;;;;;;;;;5036791;28;20307;-52
2022/11/04 09:30:13;;;;;;;166.47;100.23;;;;;;;;;;5061545;28;20254;-52
2022/11/04 09:32:39;;;;;;;183.63;112.03;;;;;;;;;;5056618;28;20215;-52
2022/11/04 09:35:05;;;;;;;192.23;109.73;;;;;;;;;;5057050;28;20212;-52
2022/11/04 09:37:31;;;;;;;198.67;114.20;;;;;;;;;;5056959;28;20536;-52
2022/11/04 09:39:57;;;;;;;187.13;108.63;;;;;;;;;;5056253;28;20243;-52
2022/11/04 09:42:23;;;;;;;169.50;107.23;;;;;;;;;;5057642;28;20543;-52
2022/11/04 09:44:51;;;;;;;147.97;101.53;;;;;;;;;;5056692;28;20214;-52
2022/11/04 09:47:18;;;;;;;173.23;107.00;;;;;;;;;;5059152;28;20215;-52
2022/11/04 09:49:46;;;;;;;149.73;101.30;;;;;;;;;;5056374;28;20216;-52
2022/11/04 09:52:18;;;;;;;140.60;99.10;;;;;;;;;;5056326;28;20211;-52
2022/11/04 09:54:50;;;;;;;162.00;105.73;;;;;;;;;;5056603;28;20215;-52
2022/11/04 09:57:17;;;;;;;171.03;106.80;;;;;;;;;;5056168;28;20207;-52
2022/11/04 09:59:43;;;;;;;158.93;102.47;;;;;;;;;;5055358;28;20211;-52
2022/11/04 10:02:26;;;;;;;156.03;100.90;;;;;;;;;;5056320;28;20280;-52
2022/11/04 10:05:03;;;;;;;159.07;104.17;;;;;;;;;;5055854;28;20207;-52
2022/11/04 10:07:36;;;;;;;160.00;102.87;;;;;;;;;;5055211;28;20402;-52
2022/11/04 10:10:12;;;;;;;156.57;102.83;;;;;;;;;;5046295;28;20241;-52
2022/11/04 10:12:47;;;;;;;154.47;100.97;;;;;;;;;;5065450;28;20266;-52
2022/11/04 10:15:22;;;;;;;180.73;109.63;;;;;;;;;;5056219;28;20171;-52
2022/11/04 10:18:09;;;;;;;155.20;105.73;;;;;;;;;;5055379;28;20319;-52
2022/11/04 10:20:38;;;;;;;159.60;106.80;;;;;;;;;;5055565;28;20230;-52
2022/11/04 10:23:22;;;;;;;142.83;98.03;;;;;;;;;;5056679;28;20267;-52
2022/11/04 10:25:51;;;;;;;147.93;98.47;;;;;;;;;;5047357;28;20226;-52
2022/11/04 10:28:18;;;;;;;171.43;108.27;;;;;;;;;;5058533;28;20215;-52
2022/11/04 10:30:46;;;;;;;155.57;100.47;;;;;;;;;;5056115;28;20223;-52
2022/11/04 10:33:26;;;;;;;167.43;107.97;;;;;;;;;;5056267;28;20187;-52
2022/11/04 10:35:56;;;;;;;207.73;121.50;;;;;;;;;;5052784;28;20222;-52
2022/11/04 10:38:40;;;;;;;192.53;114.63;;;;;;;;;;5053538;28;20207;-52
2022/11/04 10:41:25;;;;;;;176.67;106.43;;;;;;;;;;5049639;28;20210;-52
2022/11/04 10:43:53;;;;;;;164.53;104.43;;;;;;;;;;5054695;28;20227;-52
2022/11/04 10:46:19;;;;;;;164.60;105.93;;;;;;;;;;5054413;28;20216;-52
2022/11/04 10:48:51;;;;;;;151.27;101.07;;;;;;;;;;5055552;28;20712;-52
2022/11/04 10:51:22;;;;;;;219.67;122.97;;;;;;;;;;5042873;28;20551;-51
2022/11/04 10:53:54;;;;;;;341.87;164.43;;;;;;;;;;5008781;28;20228;-51
2022/11/04 10:56:38;;;;;;;340.00;143.37;;;;;;;;;;5007909;28;20272;-51
2022/11/04 10:59:23;;;;;;;184.23;109.73;;;;;;;;;;5040218;28;20222;-52
2022/11/04 11:01:50;;;;;;;169.37;105.60;;;;;;;;;;5049604;28;20213;-52
2022/11/04 11:04:27;;;;;;;158.10;100.97;;;;;;;;;;5052513;28;20211;-52
2022/11/04 11:06:54;;;;;;;171.43;110.47;;;;;;;;;;5049568;28;20276;-52
2022/11/04 11:09:28;;;;;;;175.43;109.43;;;;;;;;;;5052385;28;20914;-52
2022/11/04 11:11:55;;;;;;;156.00;103.40;;;;;;;;;;5052476;28;20190;-52
2022/11/04 11:14:27;;;;;;;157.73;104.20;;;;;;;;;;5053127;28;20207;-52
2022/11/04 11:16:53;;;;;;;164.73;101.07;;;;;;;;;;5051059;28;20228;-52
2022/11/04 11:19:23;;;;;;;174.40;107.07;;;;;;;;;;5051785;28;20214;-52
2022/11/04 11:21:50;;;;;;;165.33;106.13;;;;;;;;;;5052674;28;20199;-52
2022/11/04 11:24:20;;;;;;;150.80;100.47;;;;;;;;;;5053509;28;20183;-52
2022/11/04 11:26:48;;;;;;;156.17;104.67;;;;;;;;;;5052030;28;20695;-52
2022/11/04 11:29:16;;;;;;;152.17;101.57;;;;;;;;;;5050853;28;20246;-52
2022/11/04 11:31:42;;;;;;;165.93;105.13;;;;;;;;;;5052094;28;20234;-52
2022/11/04 11:34:21;;;;;;;168.30;104.83;;;;;;;;;;5051108;28;20207;-52
2022/11/04 11:36:49;;;;;;;192.20;110.33;;;;;;;;;;5050365;28;20261;-52
2022/11/04 11:39:18;;;;;;;164.87;106.40;;;;;;;;;;5051640;28;20203;-52
2022/11/04 11:42:01;;;;;;;138.57;94.73;;;;;;;;;;5051967;28;20230;-52
2022/11/04 11:44:31;;;;;;;167.23;103.63;;;;;;;;;;5062326;28;20250;-52
2022/11/04 11:47:00;;;;;;;169.27;103.93;;;;;;;;;;5054784;28;20285;-52
2022/11/04 11:49:29;;;;;;;175.80;105.10;;;;;;;;;;5052055;28;20230;-52
2022/11/04 11:51:55;;;;;;;145.87;97.70;;;;;;;;;;5052377;28;20447;-52
2022/11/04 11:54:48;;;;;;;188.23;109.20;;;;;;;;;;5052494;28;20168;-52
2022/11/04 11:57:36;;;;;;;174.63;103.93;;;;;;;;;;5051348;28;20434;-52
2022/11/04 12:00:11;;;;;;;162.93;99.97;;;;;;;;;;5052108;28;20287;-52
2022/11/04 12:02:40;;;;;;;192.63;109.57;;;;;;;;;;5051183;28;20281;-52
2022/11/04 12:05:13;;;;;;;193.87;111.27;;;;;;;;;;5049816;28;20211;-52
2022/11/04 12:07:39;;;;;;;195.90;111.83;;;;;;;;;;5050650;28;20227;-52
2022/11/04 12:10:31;;;;;;;198.60;112.33;;;;;;;;;;5049881;28;20211;-52
2022/11/04 12:13:06;;;;;;;173.63;102.53;;;;;;;;;;5039557;28;20211;-52
2022/11/04 12:15:48;;;;;;;182.63;105.30;;;;;;;;;;5050930;28;20655;-52
2022/11/04 12:18:14;;;;;;;175.73;104.67;;;;;;;;;;5050557;28;20217;-52
2022/11/04 12:20:45;;;;;;;162.20;99.40;;;;;;;;;;5050623;28;20208;-52
2022/11/04 12:23:24;;;;;;;165.83;99.90;;;;;;;;;;5051503;28;20690;-52
2022/11/04 12:25:50;;;;;;;170.90;103.90;;;;;;;;;;5051532;28;20211;-52
2022/11/04 12:28:21;;;;;;;167.13;102.70;;;;;;;;;;5052379;28;20203;-52
2022/11/04 12:30:56;;;;;;;164.63;100.73;;;;;;;;;;5050278;28;20242;-52
2022/11/04 12:33:45;;;;;;;179.73;106.93;;;;;;;;;;5054092;28;20171;-52
2022/11/04 12:36:11;;;;;;;154.07;98.77;;;;;;;;;;5039238;28;20226;-52
2022/11/04 12:39:00;;;;;;;144.33;97.90;;;;;;;;;;5053798;28;20207;-52
2022/11/04 12:41:34;;;;;;;168.77;100.43;;;;;;;;;;5049420;28;20204;-52
2022/11/04 12:44:22;;;;;;;155.80;96.97;;;;;;;;;;5053560;28;20287;-52
2022/11/04 12:47:00;;;;;;;165.83;101.37;;;;;;;;;;5054778;28;20219;-52
2022/11/04 12:49:26;;;;;;;164.33;99.27;;;;;;;;;;5058794;28;20264;-52
2022/11/04 12:51:52;;;;;;;134.73;94.30;;;;;;;;;;5054125;28;20235;-52
2022/11/04 12:54:33;;;;;;;172.47;105.47;;;;;;;;;;5055071;28;20180;-52
2022/11/04 12:57:11;;;;;;;168.97;103.17;;;;;;;;;;5053481;28;20226;-52
2022/11/04 12:59:49;;;;;;;143.87;96.73;;;;;;;;;;5053816;28;20598;-52
2022/11/04 13:02:21;;;;;;;153.30;97.27;;;;;;;;;;5054448;28;20238;-52
2022/11/04 13:04:56;;;;;;;161.97;99.87;;;;;;;;;;5057244;28;20644;-52
2022/11/04 13:07:29;;;;;;;171.43;100.80;;;;;;;;;;5055332;28;20271;-52
2022/11/04 13:09:57;;;;;;;171.63;102.10;;;;;;;;;;5049685;28;20215;-52
2022/11/04 13:12:26;;;;;;;144.63;96.50;;;;;;;;;;5053770;28;20172;-52
2022/11/04 13:14:54;;;;;;;177.47;108.87;;;;;;;;;;5053272;28;20212;-52
2022/11/04 13:17:32;;;;;;;180.90;108.37;;;;;;;;;;5052142;28;20226;-53
2022/11/04 13:20:00;;;;;;;169.53;101.87;;;;;;;;;;5049514;28;20214;-52
2022/11/04 13:22:29;;;;;;;165.20;100.53;;;;;;;;;;5052248;28;20208;-52
2022/11/04 13:25:02;;;;;;;152.87;97.03;;;;;;;;;;5054774;28;20207;-52
2022/11/04 13:27:33;;;;;;;172.87;104.93;;;;;;;;;;5067164;28;20249;-52
2022/11/04 13:30:05;;;;;;;160.43;102.90;;;;;;;;;;5060947;28;20218;-52
2022/11/04 13:32:47;;;;;;;163.67;103.40;;;;;;;;;;5057876;28;20297;-52
2022/11/04 13:35:32;;;;;;;177.40;108.20;;;;;;;;;;5073989;28;20601;-52
2022/11/04 13:37:58;;;;;;;167.53;105.93;;;;;;;;;;5058362;28;20238;-52
2022/11/04 13:40:31;;;;;;;167.40;101.43;;;;;;;;;;5059007;28;20214;-52
2022/11/04 13:43:36;;;;;;;149.37;97.47;;;;;;;;;;5063229;28;20224;-52
2022/11/04 13:45:48;;;;;;;167.23;102.97;;;;;;;;;;5048533;28;20298;-52
2022/11/04 13:48:17;;;;;;;175.40;102.90;;;;;;;;;;5065451;28;20213;-52
2022/11/04 13:50:43;;;;;;;165.03;101.30;;;;;;;;;;5065794;28;20227;-52
2022/11/04 13:53:10;;;;;;;168.50;105.90;;;;;;;;;;5061760;28;20266;-52
2022/11/04 13:55:47;;;;;;;178.50;105.65;;;;;;;;;;5058750;28;20438;-52
2022/11/04 13:58:18;;;;;;;162.73;99.97;;;;;;;;;;5056523;28;21004;-52
2022/11/04 14:01:04;;;;;;;160.47;100.00;;;;;;;;;;5059628;28;20225;-53
2022/11/04 14:03:36;;;;;;;131.23;93.27;;;;;;;;;;5059515;28;20179;-52
2022/11/04 14:06:03;;;;;;;162.00;99.03;;;;;;;;;;5064129;28;20222;-52
2022/11/04 14:08:29;;;;;;;177.63;104.93;;;;;;;;;;5060408;28;20561;-52
2022/11/04 14:10:55;;;;;;;211.50;118.37;;;;;;;;;;5044383;28;20237;-52
2022/11/04 14:13:32;;;;;;;169.60;107.20;;;;;;;;;;5046327;28;20215;-52
2022/11/04 14:16:05;;;;;;;176.60;109.47;;;;;;;;;;5042936;28;20714;-52
2022/11/04 14:18:38;;;;;;;151.03;103.03;;;;;;;;;;5051063;28;20672;-52
2022/11/04 14:21:04;;;;;;;185.07;115.47;;;;;;;;;;5051561;28;20683;-52
2022/11/04 14:23:30;;;;;;;166.17;104.73;;;;;;;;;;5041817;28;20613;-52
2022/11/04 14:26:07;;;;;;;169.50;106.73;;;;;;;;;;5049879;28;20223;-52
2022/11/04 14:28:34;;;;;;;141.00;99.33;;;;;;;;;;5047839;28;20545;-52
2022/11/04 14:31:10;;;;;;;168.40;107.23;;;;;;;;;;5052101;28;20310;-52
2022/11/04 14:33:38;;;;;;;177.37;110.37;;;;;;;;;;5040244;28;20253;-52
2022/11/04 14:36:13;;;;;;;182.60;111.50;;;;;;;;;;5060002;28;20207;-52
2022/11/04 14:38:40;;;;;;;159.27;104.07;;;;;;;;;;5064493;28;20605;-52